Time;durP1;ratioP1;P1;durP2;ratioP2;P2;SDS_P1;SDS_P2;PMS_P1;PMS_P2;Temp;Humidity;BMP_temperature;BMP_pressure;BME280_temperature;BME280_humidity;BME280_pressure;Samples;Min_cycle;Max_cycle;Signal;HPM_P1;HPM_P2
2023/01/18 00:00:49;;;;;;;6.07;3.38;;;;;;;-0.35;100.00;92866.19;5099967;28;24800;-71
2023/01/18 00:03:16;;;;;;;3.88;3.47;;;;;;;-0.34;100.00;92861.91;5094559;28;24527;-71
2023/01/18 00:05:44;;;;;;;5.63;3.28;;;;;;;-0.41;100.00;92874.22;5102368;28;24947;-71
2023/01/18 00:08:12;;;;;;;4.93;3.63;;;;;;;-0.38;100.00;92875.75;5102309;28;24441;-71
2023/01/18 00:10:39;;;;;;;2.90;2.42;;;;;;;-0.33;100.00;92876.28;5092826;28;24444;-71
2023/01/18 00:13:06;;;;;;;3.03;2.73;;;;;;;-0.41;100.00;92864.03;5099440;28;24525;-71
2023/01/18 00:15:33;;;;;;;3.00;2.70;;;;;;;-0.41;100.00;92869.13;5091695;28;24481;-72
2023/01/18 00:17:59;;;;;;;2.42;2.22;;;;;;;-0.54;100.00;92868.34;5093359;28;24434;-71
2023/01/18 00:20:27;;;;;;;2.65;2.35;;;;;;;-0.68;100.00;92866.69;5095560;28;24437;-71
2023/01/18 00:22:55;;;;;;;2.83;2.53;;;;;;;-0.62;100.00;92868.03;5096647;28;24437;-71
2023/01/18 00:25:23;;;;;;;2.15;1.80;;;;;;;-0.66;100.00;92867.41;5100588;28;24426;-71
2023/01/18 00:27:51;;;;;;;2.25;2.05;;;;;;;-0.69;100.00;92859.19;5084900;28;24449;-72
2023/01/18 00:30:19;;;;;;;2.63;2.10;;;;;;;-0.78;100.00;92865.66;5086500;28;24441;-71
2023/01/18 00:32:46;;;;;;;2.37;1.90;;;;;;;-0.74;100.00;92857.75;5103703;28;24487;-71
2023/01/18 00:35:14;;;;;;;3.17;2.25;;;;;;;-0.74;100.00;92862.84;5097667;28;24995;-71
2023/01/18 00:37:41;;;;;;;2.22;1.98;;;;;;;-0.78;100.00;92871.59;5103562;28;24437;-71
2023/01/18 00:40:10;;;;;;;2.30;2.10;;;;;;;-0.78;100.00;92869.03;5093329;27;24437;-71
2023/01/18 00:45:35;;;;;;;2.13;1.92;;;;;;;-0.85;100.00;92864.47;5005570;28;24499;-71
2023/01/18 00:48:02;;;;;;;2.47;1.93;;;;;;;-0.74;100.00;92862.84;5004218;28;24491;-71
2023/01/18 00:50:28;;;;;;;2.92;2.30;;;;;;;-0.68;100.00;92865.88;5041211;28;24514;-71
2023/01/18 00:52:58;;;;;;;4.10;2.20;;;;;;;-0.61;100.00;92862.03;5099909;28;24448;-71
2023/01/18 00:55:26;;;;;;;2.08;1.90;;;;;;;-0.49;100.00;92869.63;5101879;28;24453;-71
2023/01/18 00:57:53;;;;;;;2.70;2.30;;;;;;;-0.49;100.00;92874.72;5095020;28;24986;-71
2023/01/18 01:00:25;;;;;;;3.87;2.10;;;;;;;-0.51;100.00;92870.69;5100308;28;24437;-71
2023/01/18 01:02:52;;;;;;;2.33;1.98;;;;;;;-0.47;100.00;92874.63;5090439;28;25006;-71
2023/01/18 01:08:05;;;;;;;2.10;1.90;;;;;;;-0.45;100.00;92877.06;5096420;28;25138;-71
2023/01/18 01:10:33;;;;;;;2.17;2.00;;;;;;;-0.49;100.00;92881.53;5099280;28;24980;-71
2023/01/18 01:26:41;;;;;;;2.20;1.80;;;;;;;-0.42;100.00;92892.94;5083706;28;24418;-71
2023/01/18 01:29:08;;;;;;;3.00;1.90;;;;;;;-0.26;100.00;92896.09;5094427;28;24495;-72
2023/01/18 01:31:34;;;;;;;2.90;2.00;;;;;;;-0.32;100.00;92893.16;5092166;28;24441;-71
2023/01/18 01:34:01;;;;;;;2.45;2.25;;;;;;;-0.30;100.00;92899.78;5095354;28;24454;-72
2023/01/18 01:36:27;;;;;;;2.13;1.90;;;;;;;-0.37;100.00;92902.78;5091375;28;24441;-71
2023/01/18 01:38:54;;;;;;;3.55;2.55;;;;;;;-0.42;100.00;92905.66;5101234;28;25001;-71
2023/01/18 01:41:25;;;;;;;2.05;1.83;;;;;;;-0.49;100.00;92896.78;5088690;28;24432;-71
2023/01/18 01:43:54;;;;;;;3.05;2.38;;;;;;;-0.51;100.00;92902.00;5096508;28;24450;-71
2023/01/18 01:46:29;;;;;;;2.50;2.22;;;;;;;-0.57;100.00;92909.22;5085595;28;24429;-71
2023/01/18 01:49:01;;;;;;;3.07;2.13;;;;;;;-0.49;100.00;92904.44;5107672;28;24553;-71
2023/01/18 01:51:28;;;;;;;3.17;2.50;;;;;;;-0.69;100.00;92904.94;5095232;28;24445;-71
2023/01/18 01:53:58;;;;;;;3.08;2.30;;;;;;;-0.65;100.00;92906.34;5086726;28;25007;-71
2023/01/18 01:56:25;;;;;;;3.97;2.63;;;;;;;-0.66;100.00;92909.81;5088888;28;24437;-71
2023/01/18 01:58:57;;;;;;;2.60;2.40;;;;;;;-0.64;100.00;92916.41;5098214;28;24430;-71
2023/01/18 02:01:24;;;;;;;2.60;2.30;;;;;;;-0.51;100.00;92913.91;5096135;28;24438;-71
2023/01/18 02:03:50;;;;;;;2.40;2.20;;;;;;;-0.72;100.00;92911.00;5100894;28;24991;-71
2023/01/18 02:06:30;;;;;;;2.63;2.33;;;;;;;-0.73;100.00;92906.84;5103443;28;24437;-71
2023/01/18 02:08:57;;;;;;;3.92;2.40;;;;;;;-0.60;100.00;92909.41;5106622;28;24518;-71
2023/01/18 02:11:23;;;;;;;3.20;2.22;;;;;;;-0.52;100.00;92910.53;5084233;28;25905;-71
2023/01/18 02:13:50;;;;;;;3.03;2.10;;;;;;;-0.45;100.00;92920.28;5101269;28;24530;-71
2023/01/18 02:16:26;;;;;;;2.25;2.00;;;;;;;-0.43;100.00;92913.38;5088891;28;24448;-71
2023/01/18 02:19:03;;;;;;;2.63;2.08;;;;;;;-0.35;100.00;92924.69;5092188;28;24435;-71
2023/01/18 02:21:37;;;;;;;2.28;2.08;;;;;;;-0.47;100.00;92928.03;5081026;28;24438;-71
2023/01/18 02:24:57;;;;;;;2.35;2.00;;;;;;;-0.52;100.00;92928.34;5093419;28;24445;-71
2023/01/18 02:27:26;;;;;;;2.60;2.13;;;;;;;-0.52;100.00;92935.13;5038859;28;25051;-71
2023/01/18 02:30:06;;;;;;;2.72;2.25;;;;;;;-0.41;100.00;92935.25;5057172;28;24438;-71
2023/01/18 02:32:47;;;;;;;4.13;2.55;;;;;;;-0.43;100.00;92941.34;5064162;28;24441;-71
2023/01/18 02:35:22;;;;;;;5.22;2.47;;;;;;;-0.40;100.00;92947.06;5093828;28;24450;-71
2023/01/18 02:38:00;;;;;;;2.63;2.40;;;;;;;-0.42;100.00;92946.34;5098712;28;24780;-71
2023/01/18 02:40:34;;;;;;;3.20;2.22;;;;;;;-0.35;100.00;92947.56;5089531;28;24433;-71
2023/01/18 02:48:37;;;;;;;3.97;2.67;;;;;;;-0.29;100.00;92954.78;5097348;28;24517;-71
2023/01/18 02:51:04;;;;;;;4.28;2.78;;;;;;;-0.38;100.00;92955.38;5080509;28;24435;-71
2023/01/18 02:53:33;;;;;;;2.73;2.53;;;;;;;-0.42;100.00;92950.59;5099613;28;24425;-71
2023/01/18 02:56:04;;;;;;;3.45;2.65;;;;;;;-0.42;100.00;92959.03;5095839;28;24460;-71
2023/01/18 02:58:34;;;;;;;3.03;2.60;;;;;;;-0.51;100.00;92954.56;5097880;28;24444;-71
2023/01/18 03:01:05;;;;;;;3.92;2.88;;;;;;;-0.51;100.00;92959.66;5093372;28;24430;-71
2023/01/18 03:03:32;;;;;;;2.88;2.42;;;;;;;-0.50;100.00;92953.66;5097566;27;24469;-71
2023/01/18 03:06:00;;;;;;;2.90;2.60;;;;;;;-0.44;100.00;92955.81;5092498;28;24430;-71
2023/01/18 03:08:32;;;;;;;4.28;2.60;;;;;;;-0.32;100.00;92957.53;5092425;28;24434;-71
2023/01/18 03:11:01;;;;;;;2.03;1.83;;;;;;;-0.41;100.00;92960.66;5094357;28;24519;-71
2023/01/18 03:13:47;;;;;;;3.75;2.28;;;;;;;-0.40;100.00;92961.50;5085867;28;24449;-71
2023/01/18 03:16:21;;;;;;;2.47;2.17;;;;;;;-0.40;100.00;92961.50;5095854;28;24449;-71
2023/01/18 03:19:00;;;;;;;3.08;2.35;;;;;;;-0.58;100.00;92958.44;5103028;28;24469;-71
2023/01/18 03:21:36;;;;;;;2.77;2.23;;;;;;;-0.52;100.00;92965.63;5084508;28;24533;-71
2023/01/18 03:24:05;;;;;;;2.50;2.28;;;;;;;-0.46;100.00;92962.69;5091008;28;24434;-71
2023/01/18 03:26:35;;;;;;;2.63;2.17;;;;;;;-0.41;100.00;92962.41;5094381;28;24557;-71
2023/01/18 03:34:43;;;;;;;2.63;2.42;;;;;;;-0.92;100.00;92975.81;5096505;28;25009;-71
2023/01/18 03:37:14;;;;;;;3.42;3.10;;;;;;;-0.99;100.00;92972.84;5104025;28;25212;-71
2023/01/18 03:39:43;;;;;;;3.90;3.08;;;;;;;-1.12;100.00;92978.78;5100986;28;25028;-71
2023/01/18 03:42:14;;;;;;;3.00;2.50;;;;;;;-0.92;100.00;92982.63;5093663;28;25025;-72
2023/01/18 03:44:47;;;;;;;3.22;2.95;;;;;;;-1.05;100.00;92985.94;5088362;28;24441;-72
2023/01/18 03:47:15;;;;;;;3.60;3.03;;;;;;;-1.18;100.00;92981.72;5105656;28;24437;-72
2023/01/18 03:49:42;;;;;;;3.85;3.42;;;;;;;-1.32;100.00;92993.53;5091197;28;24431;-72
2023/01/18 03:52:16;;;;;;;3.50;3.20;;;;;;;-1.47;100.00;92997.81;5099228;28;24993;-72
2023/01/18 03:54:51;;;;;;;3.40;3.10;;;;;;;-1.43;100.00;92995.09;5091800;28;24457;-72
2023/01/18 03:57:23;;;;;;;5.63;3.15;;;;;;;-1.43;100.00;93005.25;5086189;28;24442;-72
2023/01/18 03:59:50;;;;;;;3.57;3.27;;;;;;;-1.45;100.00;92997.72;5083565;28;24442;-72
2023/01/18 04:02:18;;;;;;;3.40;3.10;;;;;;;-1.49;100.00;92997.09;5086885;28;24456;-72
2023/01/18 04:04:44;;;;;;;3.28;2.78;;;;;;;-1.52;100.00;93006.63;5084326;28;24977;-72
2023/01/18 04:07:11;;;;;;;3.03;2.83;;;;;;;-1.49;100.00;93008.97;5100388;28;24445;-72
2023/01/18 04:09:37;;;;;;;3.38;3.08;;;;;;;-1.56;100.00;93012.78;5097472;28;24442;-72
2023/01/18 04:12:04;;;;;;;3.05;2.75;;;;;;;-1.53;100.00;93017.69;5099551;28;24441;-71
2023/01/18 04:14:31;;;;;;;3.10;2.70;;;;;;;-1.54;100.00;93021.94;5090377;28;24438;-72
2023/01/18 04:16:57;;;;;;;2.92;2.72;;;;;;;-1.58;100.00;93023.03;5102106;28;24437;-71
2023/01/18 04:19:27;;;;;;;2.95;2.67;;;;;;;-1.53;100.00;93015.13;5085340;28;24441;-72
2023/01/18 04:21:53;;;;;;;3.17;2.88;;;;;;;-1.56;100.00;93026.31;5097680;28;24445;-71
2023/01/18 04:24:19;;;;;;;3.20;2.60;;;;;;;-1.58;100.00;93025.56;5098074;28;24445;-73
2023/01/18 04:26:46;;;;;;;2.72;2.53;;;;;;;-1.61;100.00;93028.28;5092909;28;24437;-72
2023/01/18 04:29:12;;;;;;;3.05;2.75;;;;;;;-1.61;100.00;93035.09;5094713;28;24437;-72
2023/01/18 04:31:39;;;;;;;2.85;2.63;;;;;;;-1.31;100.00;93040.06;5088289;28;24431;-72
2023/01/18 04:34:05;;;;;;;3.05;2.75;;;;;;;-1.64;100.00;93031.00;5087231;28;24442;-72
2023/01/18 04:36:33;;;;;;;4.28;2.72;;;;;;;-1.69;100.00;93038.09;5085558;28;24454;-74
2023/01/18 04:38:59;;;;;;;2.67;2.47;;;;;;;-1.31;100.00;93043.41;5102888;28;24960;-73
2023/01/18 04:41:26;;;;;;;2.70;2.50;;;;;;;-1.42;100.00;93043.22;5090508;28;24439;-72
2023/01/18 04:43:52;;;;;;;2.90;2.60;;;;;;;-1.55;100.00;93043.16;5089127;28;24523;-72
2023/01/18 04:46:19;;;;;;;3.05;2.75;;;;;;;-1.42;100.00;93047.50;5089839;28;24426;-71
2023/01/18 04:48:49;;;;;;;2.90;2.60;;;;;;;-1.44;100.00;93047.59;5101957;28;24441;-72
2023/01/18 04:51:16;;;;;;;2.60;2.40;;;;;;;-1.48;100.00;93052.03;5087882;28;25079;-71
2023/01/18 04:53:45;;;;;;;2.95;2.65;;;;;;;-1.55;100.00;93063.47;5089930;28;24445;-71
2023/01/18 04:56:12;;;;;;;2.50;2.30;;;;;;;-1.55;100.00;93067.72;5095514;28;24858;-71
2023/01/18 04:58:38;;;;;;;2.42;2.22;;;;;;;-1.40;100.00;93082.06;5096333;28;24440;-72
2023/01/18 05:01:07;;;;;;;4.65;2.45;;;;;;;-1.60;100.00;93079.88;5091920;28;24437;-71
2023/01/18 05:03:36;;;;;;;2.35;2.15;;;;;;;-1.54;100.00;93082.03;5082777;28;24435;-72
2023/01/18 05:06:04;;;;;;;2.75;2.08;;;;;;;-1.48;100.00;93102.00;5092120;28;24427;-72
2023/01/18 05:08:31;;;;;;;2.28;2.08;;;;;;;-1.52;100.00;93098.81;5085472;28;24525;-72
2023/01/18 05:11:02;;;;;;;2.33;2.13;;;;;;;-1.55;100.00;93103.25;5082118;28;24441;-71
2023/01/18 05:13:28;;;;;;;2.78;2.20;;;;;;;-1.51;100.00;93107.25;5084054;28;24797;-71
2023/01/18 05:15:55;;;;;;;3.53;2.30;;;;;;;-1.60;100.00;93115.38;5080192;28;24462;-71
2023/01/18 05:18:21;;;;;;;2.17;1.95;;;;;;;-1.38;100.00;93125.09;5086973;28;24430;-71
2023/01/18 05:20:48;;;;;;;2.60;1.90;;;;;;;-1.58;100.00;93122.03;5094013;28;24436;-71
2023/01/18 05:23:15;;;;;;;2.58;1.90;;;;;;;-1.64;100.00;93131.69;5089926;28;24450;-71
2023/01/18 05:25:41;;;;;;;2.30;1.70;;;;;;;-1.67;100.00;93139.50;5086870;28;24422;-72
2023/01/18 05:28:10;;;;;;;2.47;2.05;;;;;;;-1.57;100.00;93141.41;5093352;28;24435;-71
2023/01/18 05:30:39;;;;;;;2.20;1.90;;;;;;;-1.64;100.00;93144.41;5087801;28;24795;-71
2023/01/18 05:33:05;;;;;;;2.10;1.90;;;;;;;-1.63;100.00;93157.00;5093284;28;24984;-71
2023/01/18 05:35:32;;;;;;;2.00;1.80;;;;;;;-1.67;100.00;93160.59;5078649;28;24458;-71
2023/01/18 05:37:58;;;;;;;2.08;1.88;;;;;;;-1.47;100.00;93164.56;5095093;28;24442;-72
2023/01/18 05:40:25;;;;;;;2.33;1.85;;;;;;;-1.67;100.00;93169.94;5092566;28;24515;-72
2023/01/18 05:42:52;;;;;;;3.88;2.10;;;;;;;-1.72;100.00;93176.09;5099324;28;24441;-72
2023/01/18 05:45:20;;;;;;;2.10;1.92;;;;;;;-1.63;100.00;93181.53;5086702;28;24444;-73
2023/01/18 05:47:47;;;;;;;2.25;2.05;;;;;;;-1.73;100.00;93184.63;5098951;28;24441;-72
2023/01/18 05:50:14;;;;;;;2.30;1.70;;;;;;;-1.66;100.00;93191.91;5094977;28;24434;-73
2023/01/18 05:52:41;;;;;;;2.45;2.10;;;;;;;-1.82;100.00;93189.38;5094734;28;24546;-72
2023/01/18 05:55:08;;;;;;;2.70;2.50;;;;;;;-1.86;100.00;93190.47;5086642;28;24448;-72
2023/01/18 05:57:35;;;;;;;2.83;2.60;;;;;;;-1.89;100.00;93194.00;5039021;28;1728892;-71
2023/01/18 06:00:02;;;;;;;2.73;2.30;;;;;;;-1.75;100.00;93199.09;5100265;28;24441;-71
2023/01/18 06:02:30;;;;;;;2.80;2.50;;;;;;;-1.74;100.00;93212.63;5094745;28;25013;-71
2023/01/18 06:04:56;;;;;;;3.65;2.40;;;;;;;-1.68;100.00;93217.34;5094551;28;24979;-73
2023/01/18 06:07:23;;;;;;;2.10;1.90;;;;;;;-1.72;100.00;93231.91;5078660;28;24497;-73
2023/01/18 06:09:49;;;;;;;2.97;2.20;;;;;;;-1.79;100.00;93230.63;5089384;28;25074;-73
2023/01/18 06:12:16;;;;;;;2.92;2.20;;;;;;;-1.81;100.00;93239.25;5088379;28;24994;-73
2023/01/18 06:14:42;;;;;;;2.67;2.47;;;;;;;-1.71;100.00;93240.34;5083041;28;24445;-73
2023/01/18 06:17:09;;;;;;;2.30;2.10;;;;;;;-1.73;100.00;93255.66;5091291;28;24457;-72
2023/01/18 06:19:37;;;;;;;3.67;2.47;;;;;;;-1.73;100.00;93254.84;5093114;28;24988;-72
2023/01/18 06:22:03;;;;;;;2.60;2.10;;;;;;;-1.80;100.00;93266.25;5092486;28;24491;-73
2023/01/18 06:24:29;;;;;;;2.70;2.28;;;;;;;-1.79;100.00;93265.34;5085189;28;24446;-73
2023/01/18 06:26:57;;;;;;;3.58;2.63;;;;;;;-1.71;100.00;93265.72;5099138;28;24429;-73
2023/01/18 06:29:23;;;;;;;3.85;2.47;;;;;;;-1.67;100.00;93279.06;5096678;28;24450;-73
2023/01/18 06:31:50;;;;;;;2.88;2.55;;;;;;;-1.79;100.00;93278.84;5090255;28;24442;-73
2023/01/18 06:34:16;;;;;;;2.80;2.30;;;;;;;-1.83;100.00;93287.53;5079785;28;24438;-72
2023/01/18 06:36:44;;;;;;;2.63;2.30;;;;;;;-1.78;100.00;93284.72;5085398;28;24457;-72
2023/01/18 06:39:11;;;;;;;2.72;2.20;;;;;;;-1.76;100.00;93293.09;5099943;28;24434;-74
2023/01/18 06:41:38;;;;;;;3.70;2.42;;;;;;;-1.75;100.00;93297.25;5092289;28;24441;-73
2023/01/18 06:44:04;;;;;;;3.33;2.85;;;;;;;-1.80;100.00;93301.75;5081489;28;24530;-72
2023/01/18 06:46:32;;;;;;;5.38;3.10;;;;;;;-1.71;100.00;93309.72;5098858;28;24434;-73
2023/01/18 06:48:58;;;;;;;3.05;2.75;;;;;;;-1.90;100.00;93310.78;5098137;28;24466;-72
2023/01/18 06:51:24;;;;;;;5.30;2.70;;;;;;;-1.92;100.00;93318.47;5094343;28;24440;-71
2023/01/18 06:53:52;;;;;;;2.78;2.22;;;;;;;-1.86;100.00;93318.13;5085677;28;24438;-72
2023/01/18 06:56:19;;;;;;;11.98;2.67;;;;;;;-1.87;100.00;93320.75;5098552;28;24457;-73
2023/01/18 06:58:45;;;;;;;3.60;2.80;;;;;;;-1.99;100.00;93333.19;5093170;28;24542;-73
2023/01/18 07:01:12;;;;;;;3.45;2.40;;;;;;;-1.96;100.00;93337.31;5086234;28;24426;-73
2023/01/18 07:03:38;;;;;;;4.55;2.55;;;;;;;-1.93;100.00;93341.38;5095405;28;24789;-73
2023/01/18 07:06:06;;;;;;;4.97;2.72;;;;;;;-2.07;100.00;93350.53;5095438;28;24511;-73
2023/01/18 07:08:33;;;;;;;2.80;2.20;;;;;;;-2.04;100.00;93347.00;5079071;28;24526;-72
2023/01/18 07:11:04;;;;;;;2.95;2.50;;;;;;;-2.04;100.00;93352.06;5089352;28;24434;-72
2023/01/18 07:13:31;;;;;;;3.78;2.67;;;;;;;-2.14;100.00;93354.31;5085278;28;24434;-72
2023/01/18 07:16:00;;;;;;;3.53;2.00;;;;;;;-2.14;100.00;93363.63;5094386;28;24457;-72
2023/01/18 07:18:27;;;;;;;6.35;3.95;;;;;;;-2.11;100.00;93369.34;5089273;28;24788;-72
2023/01/18 07:20:59;;;;;;;4.15;2.97;;;;;;;-2.10;100.00;93367.63;5084711;28;24433;-72
2023/01/18 07:23:25;;;;;;;3.43;2.73;;;;;;;-2.09;100.00;93372.63;5083478;28;24533;-72
2023/01/18 07:25:58;;;;;;;4.07;2.65;;;;;;;-2.03;100.00;93376.56;5093919;28;24429;-72
2023/01/18 07:28:26;;;;;;;3.63;2.72;;;;;;;-2.11;100.00;93384.56;5086924;28;24445;-72
2023/01/18 07:30:53;;;;;;;5.70;3.58;;;;;;;-2.20;100.00;93397.72;5092166;28;24433;-72
2023/01/18 07:33:19;;;;;;;4.13;2.90;;;;;;;-2.24;100.00;93394.53;5081964;28;24442;-72
2023/01/18 07:35:46;;;;;;;2.67;2.38;;;;;;;-2.23;100.00;93408.00;5091456;28;24445;-73
2023/01/18 07:38:12;;;;;;;4.03;3.15;;;;;;;-2.25;100.00;93414.88;5092897;28;24437;-72
2023/01/18 07:40:38;;;;;;;7.18;3.25;;;;;;;-2.21;100.00;93421.44;5091739;28;24438;-73
2023/01/18 07:43:05;;;;;;;4.18;3.10;;;;;;;-2.26;100.00;93415.78;5083990;28;24435;-72
2023/01/18 07:45:33;;;;;;;3.17;2.83;;;;;;;-2.27;100.00;93427.63;5100471;28;24441;-73
2023/01/18 07:47:59;;;;;;;3.85;3.20;;;;;;;-2.25;100.00;93422.50;5092071;28;24967;-73
2023/01/18 07:50:26;;;;;;;3.60;3.30;;;;;;;-2.08;100.00;93435.13;5090741;28;24495;-72
2023/01/18 07:52:54;;;;;;;3.88;3.33;;;;;;;-2.11;100.00;93434.44;5087442;28;24440;-72
2023/01/18 07:55:21;;;;;;;4.13;3.03;;;;;;;-2.27;100.00;93434.41;5094059;28;24529;-72
2023/01/18 07:57:48;;;;;;;3.55;3.05;;;;;;;-2.27;100.00;93436.97;5074241;28;24778;-73
2023/01/18 08:00:16;;;;;;;3.35;3.03;;;;;;;-2.27;100.00;93447.09;5091451;28;24430;-73
2023/01/18 08:02:43;;;;;;;3.97;3.55;;;;;;;-2.30;100.00;93448.09;5090687;28;24444;-73
2023/01/18 08:05:10;;;;;;;5.95;4.15;;;;;;;-2.31;100.00;93461.63;5097714;28;24437;-73
2023/01/18 08:07:36;;;;;;;4.55;3.30;;;;;;;-2.29;100.00;93462.41;5089850;28;24438;-73
2023/01/18 08:10:03;;;;;;;4.80;2.90;;;;;;;-2.27;100.00;93460.59;5091385;28;24438;-71
2023/01/18 08:12:29;;;;;;;3.63;3.05;;;;;;;-2.26;100.00;93464.78;5086070;28;24445;-71
2023/01/18 08:14:56;;;;;;;3.42;2.92;;;;;;;-2.27;100.00;93467.38;5093872;28;24445;-73
2023/01/18 08:17:22;;;;;;;5.40;3.00;;;;;;;-2.20;100.00;93474.59;5084068;28;24449;-71
2023/01/18 08:19:50;;;;;;;3.93;3.10;;;;;;;-2.14;100.00;93482.81;5088491;28;25011;-74
2023/01/18 08:22:17;;;;;;;4.03;3.15;;;;;;;-2.21;100.00;93490.72;5097024;28;24449;-73
2023/01/18 08:24:43;;;;;;;4.00;2.88;;;;;;;-2.21;100.00;93487.38;5087738;28;24802;-72
2023/01/18 08:27:09;;;;;;;4.57;3.38;;;;;;;-2.21;100.00;93494.97;5088827;28;24431;-75
2023/01/18 08:29:36;;;;;;;6.05;2.95;;;;;;;-2.20;100.00;93494.06;5093005;28;24442;-74
2023/01/18 08:32:02;;;;;;;4.07;2.88;;;;;;;-2.18;100.00;93501.63;5081684;28;24524;-72
2023/01/18 08:34:29;;;;;;;4.78;3.42;;;;;;;-2.21;100.00;93505.13;5095925;28;24441;-73
2023/01/18 08:36:57;;;;;;;2.70;2.50;;;;;;;-2.15;100.00;93520.03;5093952;28;24457;-73
2023/01/18 08:39:23;;;;;;;4.17;2.93;;;;;;;-2.16;100.00;93518.38;5088302;28;24449;-73
2023/01/18 08:41:50;;;;;;;3.30;2.50;;;;;;;-2.11;100.00;93525.75;5086511;28;24438;-73
2023/01/18 08:44:16;;;;;;;3.97;2.55;;;;;;;-2.09;100.00;93532.38;5096957;28;24438;-73
2023/01/18 08:46:43;;;;;;;2.60;2.30;;;;;;;-2.03;100.00;93541.44;5097216;28;24426;-73
2023/01/18 08:49:10;;;;;;;3.00;2.65;;;;;;;-2.09;100.00;93544.25;5085037;28;24430;-73
2023/01/18 08:51:36;;;;;;;2.35;2.10;;;;;;;-2.08;100.00;93556.03;5085708;28;24437;-73
2023/01/18 08:54:05;;;;;;;3.40;2.30;;;;;;;-2.08;100.00;93561.91;5097312;28;24434;-74
2023/01/18 08:56:32;;;;;;;2.33;2.10;;;;;;;-1.97;100.00;93564.75;5097373;28;24514;-73
2023/01/18 08:58:58;;;;;;;3.42;2.30;;;;;;;-2.00;100.00;93559.84;5095531;28;24836;-72
2023/01/18 09:01:25;;;;;;;2.47;2.28;;;;;;;-2.04;100.00;93565.13;5090458;28;24437;-73
2023/01/18 09:03:54;;;;;;;2.65;2.30;;;;;;;-2.01;100.00;93560.72;5098678;28;24982;-74
2023/01/18 09:06:21;;;;;;;3.25;2.35;;;;;;;-2.02;100.00;93564.16;5103097;28;24440;-73
2023/01/18 09:08:48;;;;;;;2.83;2.28;;;;;;;-2.04;100.00;93575.28;5096210;28;24437;-74
2023/01/18 09:11:17;;;;;;;2.92;2.30;;;;;;;-2.07;100.00;93573.72;5092927;28;24449;-73
2023/01/18 09:13:44;;;;;;;3.92;2.22;;;;;;;-2.06;100.00;93579.63;5095861;28;24438;-74
2023/01/18 09:16:11;;;;;;;3.50;2.10;;;;;;;-2.04;100.00;93582.88;5101560;28;24441;-73
2023/01/18 09:18:38;;;;;;;4.28;2.50;;;;;;;-2.00;100.00;93592.81;5101769;28;24437;-73
2023/01/18 09:21:06;;;;;;;3.20;2.40;;;;;;;-1.93;100.00;93584.91;5098768;28;24953;-73
2023/01/18 09:23:32;;;;;;;3.05;1.90;;;;;;;-1.96;100.00;93596.84;5100431;28;24514;-72
2023/01/18 09:26:03;;;;;;;3.05;2.30;;;;;;;-1.93;100.00;93602.66;5101685;28;24430;-73
2023/01/18 09:28:31;;;;;;;2.43;2.00;;;;;;;-1.88;100.00;93609.16;5096361;28;24451;-73
2023/01/18 09:31:00;;;;;;;4.43;3.30;;;;;;;-1.88;100.00;93619.31;5097670;28;24434;-73
2023/01/18 09:33:26;;;;;;;4.10;3.00;;;;;;;-1.80;100.00;93616.38;5100340;28;24462;-73
2023/01/18 09:35:54;;;;;;;2.97;2.50;;;;;;;-1.87;100.00;93630.28;5093360;28;24996;-74
2023/01/18 09:38:20;;;;;;;3.33;2.58;;;;;;;-1.85;100.00;93633.56;5097485;28;24451;-73
2023/01/18 09:40:47;;;;;;;4.20;2.60;;;;;;;-1.85;100.00;93636.91;5092527;28;24426;-74
2023/01/18 09:43:17;;;;;;;3.20;2.38;;;;;;;-1.81;100.00;93635.88;5100398;28;24444;-72
2023/01/18 09:45:47;;;;;;;4.80;3.10;;;;;;;-1.81;100.00;93646.03;5094006;28;24431;-73
2023/01/18 09:48:27;;;;;;;4.28;2.55;;;;;;;-1.66;100.00;93652.06;5097786;28;24895;-74
2023/01/18 09:50:55;;;;;;;4.63;2.80;;;;;;;-1.58;100.00;93657.56;5084011;28;24528;-74
2023/01/18 09:53:36;;;;;;;4.32;2.72;;;;;;;-1.82;100.00;93651.16;5100218;28;24441;-74
2023/01/18 09:56:08;;;;;;;9.27;2.50;;;;;;;-1.73;100.00;93659.16;5100510;28;24433;-74
2023/01/18 09:58:44;;;;;;;3.08;2.78;;;;;;;-1.78;100.00;93663.63;5098363;28;24461;-73
2023/01/18 10:01:16;;;;;;;5.70;2.72;;;;;;;-1.73;100.00;93663.41;5101313;28;24441;-73
2023/01/18 10:03:50;;;;;;;8.30;2.28;;;;;;;-1.78;100.00;93667.88;5087053;28;24446;-72
2023/01/18 10:06:22;;;;;;;2.75;2.00;;;;;;;-1.84;100.00;93671.53;5103449;28;24441;-73
2023/01/18 10:08:55;;;;;;;3.40;2.38;;;;;;;-1.79;100.00;93672.13;5086561;28;24431;-74
2023/01/18 10:11:28;;;;;;;4.27;2.67;;;;;;;-1.67;100.00;93677.50;5104305;28;24994;-73
2023/01/18 10:14:04;;;;;;;4.25;2.70;;;;;;;-1.81;100.00;93681.53;5095310;28;24442;-75
2023/01/18 10:16:33;;;;;;;3.60;2.55;;;;;;;-1.75;100.00;93675.34;5096540;28;24886;-73
2023/01/18 10:19:01;;;;;;;4.32;2.55;;;;;;;-1.74;100.00;93675.28;5085755;28;24445;-73
2023/01/18 10:21:37;;;;;;;3.45;2.25;;;;;;;-1.74;100.00;93682.88;5101387;28;24461;-74
2023/01/18 10:24:22;;;;;;;4.10;2.80;;;;;;;-1.66;100.00;93686.78;5085505;28;24469;-74
2023/01/18 10:26:51;;;;;;;4.43;3.03;;;;;;;-1.69;100.00;93697.06;5095837;28;24434;-73
2023/01/18 10:29:28;;;;;;;4.70;3.10;;;;;;;-1.66;100.00;93692.66;5097891;28;24430;-74
2023/01/18 10:32:00;;;;;;;9.40;3.92;;;;;;;-1.71;100.00;93697.13;5091575;28;24438;-72
2023/01/18 10:34:30;;;;;;;5.93;3.27;;;;;;;-1.69;100.00;93713.13;5087024;28;24662;-72
2023/01/18 10:37:03;;;;;;;9.32;5.95;;;;;;;-1.61;100.00;93703.41;5092066;28;25026;-73
2023/01/18 10:39:34;;;;;;;10.90;6.30;;;;;;;-1.62;100.00;93709.38;5099147;28;24438;-73
2023/01/18 10:42:03;;;;;;;6.80;3.35;;;;;;;-1.62;100.00;93713.66;5093818;28;24435;-73
2023/01/18 10:44:30;;;;;;;5.32;3.67;;;;;;;-1.46;100.00;93712.81;5097914;28;24444;-73
2023/01/18 10:47:00;;;;;;;4.10;3.05;;;;;;;-1.47;100.00;93715.44;5086681;28;24793;-73
2023/01/18 10:49:35;;;;;;;7.13;4.15;;;;;;;-1.44;100.00;93714.47;5094449;28;24440;-73
2023/01/18 10:52:19;;;;;;;6.43;3.00;;;;;;;-1.52;100.00;93709.75;5097495;28;24800;-73
2023/01/18 10:54:54;;;;;;;4.70;3.40;;;;;;;-1.49;100.00;93712.94;5099322;28;25018;-73
2023/01/18 10:57:25;;;;;;;6.40;3.85;;;;;;;-1.32;100.00;93718.94;5095461;28;24865;-73
2023/01/18 10:59:52;;;;;;;3.75;2.80;;;;;;;-1.20;100.00;93730.19;5093585;28;24425;-73
2023/01/18 11:02:28;;;;;;;4.83;3.00;;;;;;;-1.25;100.00;93733.78;5094549;28;25095;-73
2023/01/18 11:05:00;;;;;;;3.35;2.45;;;;;;;-1.34;100.00;93735.94;5092638;28;24442;-72
2023/01/18 11:07:28;;;;;;;3.97;2.53;;;;;;;-1.42;100.00;93728.72;5086346;28;24541;-72
2023/01/18 11:09:58;;;;;;;4.40;2.67;;;;;;;-1.40;100.00;93732.00;5082673;28;24434;-72
2023/01/18 11:12:33;;;;;;;3.17;2.65;;;;;;;-1.46;100.00;93735.66;5084881;28;25276;-72
2023/01/18 11:15:22;;;;;;;7.30;3.03;;;;;;;-1.39;100.00;93732.81;5097256;28;24457;-72
2023/01/18 11:18:08;;;;;;;3.25;2.42;;;;;;;-1.32;100.00;93742.59;5100103;28;24812;-72
2023/01/18 11:20:38;;;;;;;3.13;2.17;;;;;;;-1.36;100.00;93738.56;5093383;28;24631;-72
2023/01/18 11:23:14;;;;;;;4.82;2.85;;;;;;;-1.43;100.00;93744.84;5100504;28;24445;-72
2023/01/18 11:25:48;;;;;;;5.30;3.85;;;;;;;-1.35;100.00;93755.44;5100670;28;24962;-73
2023/01/18 11:28:18;;;;;;;4.50;2.85;;;;;;;-1.20;100.00;93753.88;5092674;28;24430;-72
2023/01/18 11:30:52;;;;;;;6.30;3.13;;;;;;;-1.19;100.00;93754.69;5084454;28;24430;-72
2023/01/18 11:33:22;;;;;;;3.58;2.22;;;;;;;-1.24;100.00;93760.81;5097426;28;24444;-72
2023/01/18 11:35:54;;;;;;;5.03;2.67;;;;;;;-1.18;100.00;93769.06;5099564;28;24441;-73
2023/01/18 11:38:25;;;;;;;4.72;2.45;;;;;;;-1.15;100.00;93768.88;5093704;28;25266;-72
2023/01/18 11:41:03;;;;;;;4.28;2.50;;;;;;;-1.13;100.00;93769.63;5094822;28;24442;-71
2023/01/18 11:43:31;;;;;;;4.70;2.70;;;;;;;-1.08;100.00;93776.13;5082801;28;24450;-73
2023/01/18 11:46:04;;;;;;;6.13;3.05;;;;;;;-1.08;100.00;93778.66;5084081;28;24438;-71
2023/01/18 11:48:38;;;;;;;3.95;2.95;;;;;;;-1.15;100.00;93777.34;5080754;28;24438;-71
2023/01/18 11:51:14;;;;;;;4.35;2.65;;;;;;;-1.11;100.00;93788.16;5101076;28;24436;-73
2023/01/18 11:53:48;;;;;;;2.92;2.40;;;;;;;-1.15;100.00;93786.66;5097904;28;24877;-73
2023/01/18 11:56:27;;;;;;;5.45;2.80;;;;;;;-1.07;100.00;93792.22;5099266;28;24879;-73
2023/01/18 11:58:55;;;;;;;3.92;2.75;;;;;;;-1.00;100.00;93791.81;5100912;28;24823;-73
2023/01/18 12:01:40;;;;;;;4.72;2.40;;;;;;;-1.05;100.00;93792.94;5097765;28;24433;-74
2023/01/18 12:04:13;;;;;;;6.90;2.50;;;;;;;-1.04;100.00;93803.03;5099110;28;24489;-73